Time;durP1;ratioP1;P1;durP2;ratioP2;P2;SDS_P1;SDS_P2;PMS_P1;PMS_P2;Temp;Humidity;BMP_temperature;BMP_pressure;BME280_temperature;BME280_humidity;BME280_pressure;Samples;Min_cycle;Max_cycle;Signal;HPM_P1;HPM_P2
2021/11/29 00:02:25;;;;;;;20.17;14.53;;;3.60;99.90;;;;;;5063536;28;20184;-85
2021/11/29 00:04:54;;;;;;;22.77;14.77;;;3.50;99.90;;;;;;5062049;28;20172;-85
2021/11/29 00:07:23;;;;;;;25.60;15.77;;;3.60;99.90;;;;;;5063176;28;20616;-87
2021/11/29 00:09:52;;;;;;;24.60;16.23;;;3.60;99.90;;;;;;5063203;28;20161;-86
2021/11/29 00:12:26;;;;;;;26.20;16.37;;;3.70;99.90;;;;;;5065160;28;20647;-86
2021/11/29 00:14:54;;;;;;;26.00;15.67;;;3.70;99.90;;;;;;5069877;28;20161;-80
2021/11/29 00:17:23;;;;;;;25.43;16.00;;;3.70;99.90;;;;;;5077970;28;20273;-79
2021/11/29 00:19:52;;;;;;;25.97;16.73;;;3.70;99.90;;;;;;5075845;28;20168;-80
2021/11/29 00:22:40;;;;;;;28.20;17.43;;;3.60;99.90;;;;;;5073794;28;20149;-79
2021/11/29 00:25:14;;;;;;;21.47;16.30;;;3.60;99.90;;;;;;5076842;28;20336;-87
2021/11/29 00:27:41;;;;;;;26.50;16.80;;;3.50;99.90;;;;;;5075133;28;20220;-85
2021/11/29 00:30:11;;;;;;;24.87;16.37;;;3.50;99.90;;;;;;5073842;28;20189;-85
2021/11/29 00:32:38;;;;;;;23.03;15.57;;;3.60;99.90;;;;;;5072477;28;20230;-85
2021/11/29 00:35:04;;;;;;;24.87;16.23;;;3.60;99.90;;;;;;5072760;28;20169;-87
2021/11/29 00:37:30;;;;;;;25.90;15.67;;;3.60;99.90;;;;;;5073092;28;20209;-87
2021/11/29 00:39:58;;;;;;;24.47;16.10;;;3.60;99.90;;;;;;5064812;28;20643;-89
2021/11/29 00:42:29;;;;;;;23.50;15.27;;;3.60;99.90;;;;;;5059505;28;20243;-87
2021/11/29 00:44:58;;;;;;;22.97;15.90;;;3.60;99.90;;;;;;5059835;28;20165;-88
2021/11/29 00:47:24;;;;;;;21.90;14.37;;;3.60;99.90;;;;;;5058442;28;20203;-85
2021/11/29 00:49:52;;;;;;;18.53;13.63;;;3.50;99.90;;;;;;5057966;28;20677;-87
2021/11/29 00:52:19;;;;;;;18.90;14.50;;;3.60;99.90;;;;;;5057691;28;20244;-89
2021/11/29 00:54:45;;;;;;;19.97;14.00;;;3.50;99.90;;;;;;5057751;28;20154;-88
2021/11/29 00:57:10;;;;;;;23.00;14.23;;;3.70;99.90;;;;;;5057358;28;20355;-89
2021/11/29 00:59:36;;;;;;;20.73;13.53;;;3.40;99.90;;;;;;5057546;28;20212;-87
2021/11/29 01:02:02;;;;;;;19.50;13.47;;;3.40;99.90;;;;;;5055252;28;20207;-88
2021/11/29 01:04:28;;;;;;;18.37;13.40;;;3.30;99.90;;;;;;5055916;28;20252;-87
2021/11/29 01:06:53;;;;;;;16.87;11.67;;;3.20;99.90;;;;;;5056707;28;20165;-87
2021/11/29 01:09:19;;;;;;;18.03;12.60;;;3.20;99.90;;;;;;5056653;28;20212;-86
2021/11/29 01:11:46;;;;;;;17.47;12.67;;;3.20;99.90;;;;;;5056617;28;20173;-89
2021/11/29 01:14:14;;;;;;;16.53;10.83;;;3.20;99.90;;;;;;5056381;28;20641;-89
2021/11/29 01:16:40;;;;;;;15.50;11.10;;;3.20;99.90;;;;;;5068998;28;20205;-82
2021/11/29 01:19:05;;;;;;;17.83;13.33;;;3.50;99.90;;;;;;5078580;28;20264;-82
2021/11/29 01:21:31;;;;;;;17.50;12.70;;;3.60;99.90;;;;;;5079518;28;20173;-83
2021/11/29 01:23:57;;;;;;;17.50;12.17;;;3.80;99.90;;;;;;5079135;28;20157;-83
2021/11/29 01:26:22;;;;;;;16.23;12.07;;;3.80;99.90;;;;;;5075802;28;20161;-84
2021/11/29 01:28:48;;;;;;;13.77;10.73;;;3.80;99.90;;;;;;5078701;28;20168;-87
2021/11/29 01:31:14;;;;;;;13.93;10.97;;;3.70;99.90;;;;;;5078689;28;20192;-78
2021/11/29 01:33:39;;;;;;;16.00;11.37;;;3.80;99.90;;;;;;5078594;28;20168;-86
2021/11/29 01:36:06;;;;;;;14.17;10.60;;;3.80;99.90;;;;;;5075460;28;20220;-81
2021/11/29 01:38:32;;;;;;;13.13;10.70;;;3.80;99.90;;;;;;5063299;28;20165;-88
2021/11/29 01:40:58;;;;;;;11.33;9.77;;;3.60;99.90;;;;;;5056600;28;20251;-82
2021/11/29 01:43:27;;;;;;;12.57;9.23;;;3.60;99.90;;;;;;5055656;28;20177;-86
2021/11/29 01:46:26;;;;;;;13.70;9.50;;;3.30;99.90;;;;;;5056667;28;20172;-87
2021/11/29 01:48:52;;;;;;;12.53;9.13;;;3.10;99.90;;;;;;5055190;28;20219;-84
2021/11/29 01:51:19;;;;;;;12.63;9.13;;;3.10;99.90;;;;;;5056324;28;20153;-87
2021/11/29 01:53:45;;;;;;;11.87;9.03;;;3.10;99.90;;;;;;5056385;28;20165;-87
2021/11/29 01:56:10;;;;;;;11.07;8.57;;;3.20;99.90;;;;;;5070652;28;20173;-83
2021/11/29 01:58:39;;;;;;;11.33;8.70;;;3.10;99.90;;;;;;5078504;28;20200;-79
2021/11/29 02:01:11;;;;;;;10.80;8.43;;;3.10;99.90;;;;;;5077189;28;20159;-79
2021/11/29 02:03:38;;;;;;;10.93;8.33;;;3.10;99.90;;;;;;5076649;28;20169;-87
2021/11/29 02:06:04;;;;;;;9.33;7.33;;;3.20;99.90;;;;;;5056237;28;20268;-86
2021/11/29 02:08:31;;;;;;;10.63;8.43;;;3.10;99.90;;;;;;5060180;28;20168;-87
2021/11/29 02:10:57;;;;;;;11.57;9.03;;;3.20;99.90;;;;;;5057504;28;20169;-88
2021/11/29 02:13:23;;;;;;;11.70;9.17;;;3.10;99.90;;;;;;5056670;28;20172;-87
2021/11/29 02:15:52;;;;;;;10.53;8.67;;;3.00;99.90;;;;;;5068710;28;20549;-85
2021/11/29 02:18:21;;;;;;;11.00;8.40;;;3.20;99.90;;;;;;5075136;28;20169;-86
2021/11/29 02:21:10;;;;;;;10.10;8.03;;;3.10;99.90;;;;;;5078345;28;20153;-79
2021/11/29 02:23:43;;;;;;;10.27;9.13;;;3.10;99.90;;;;;;5078052;28;20153;-84
2021/11/29 02:26:10;;;;;;;9.53;7.40;;;3.20;99.90;;;;;;5077655;28;20175;-78
2021/11/29 02:28:44;;;;;;;8.63;7.73;;;3.30;99.90;;;;;;5071121;28;20181;-89
2021/11/29 02:32:00;;;;;;;10.10;7.27;;;3.30;99.90;;;;;;5056514;28;20161;-88
2021/11/29 02:34:29;;;;;;;7.73;6.03;;;3.20;99.90;;;;;;5056388;28;20188;-87
2021/11/29 02:36:57;;;;;;;10.10;7.23;;;3.40;99.90;;;;;;5055846;28;20209;-88
2021/11/29 02:39:24;;;;;;;7.77;6.57;;;3.50;99.90;;;;;;5056350;28;20165;-88
2021/11/29 02:41:53;;;;;;;8.63;7.17;;;3.40;99.90;;;;;;5057092;28;20157;-88
2021/11/29 02:44:19;;;;;;;8.20;7.27;;;3.40;99.90;;;;;;5058198;28;20316;-88
2021/11/29 02:46:45;;;;;;;9.33;6.63;;;3.20;99.90;;;;;;5056178;28;20161;-85
2021/11/29 02:49:13;;;;;;;8.40;6.53;;;3.30;99.90;;;;;;5055386;28;20200;-87
2021/11/29 02:51:56;;;;;;;7.97;6.97;;;3.30;99.90;;;;;;5054271;28;20767;-88
2021/11/29 02:54:31;;;;;;;9.50;7.13;;;3.30;99.90;;;;;;5058953;28;20169;-86
2021/11/29 02:57:03;;;;;;;10.60;6.53;;;3.20;99.90;;;;;;5062016;28;20298;-86
2021/11/29 02:59:31;;;;;;;8.53;6.73;;;3.30;99.90;;;;;;5060556;28;20252;-88
2021/11/29 03:02:00;;;;;;;8.83;7.33;;;3.40;99.90;;;;;;5055395;28;20169;-88
2021/11/29 03:04:29;;;;;;;10.93;7.43;;;3.40;99.90;;;;;;5057529;28;20176;-84
2021/11/29 03:06:55;;;;;;;8.70;7.20;;;3.40;99.90;;;;;;5064659;28;20173;-84
2021/11/29 03:09:24;;;;;;;7.87;6.87;;;3.20;99.90;;;;;;5069530;28;20165;-88
2021/11/29 03:11:50;;;;;;;7.70;6.80;;;3.00;99.90;;;;;;5067831;28;20173;-88
2021/11/29 03:14:17;;;;;;;9.77;6.87;;;2.90;99.90;;;;;;5059278;28;20149;-86
2021/11/29 03:16:43;;;;;;;8.97;6.47;;;2.80;99.90;;;;;;5058670;28;20326;-87
2021/11/29 03:19:09;;;;;;;7.13;6.30;;;2.80;99.90;;;;;;5058800;28;20193;-88
2021/11/29 03:21:35;;;;;;;8.93;6.33;;;2.80;99.90;;;;;;5058159;28;20173;-88
2021/11/29 03:24:09;;;;;;;11.00;7.73;;;2.70;99.90;;;;;;5061537;28;20183;-88
2021/11/29 03:26:36;;;;;;;9.30;6.70;;;2.70;99.90;;;;;;5061649;28;20330;-88
2021/11/29 03:29:20;;;;;;;9.27;7.03;;;2.80;99.90;;;;;;5058584;28;20629;-88
2021/11/29 03:31:57;;;;;;;8.73;7.23;;;2.70;99.90;;;;;;5058311;28;20166;-86
2021/11/29 03:34:23;;;;;;;8.83;7.27;;;2.80;99.90;;;;;;5067560;28;20153;-86
2021/11/29 03:36:50;;;;;;;8.87;6.70;;;2.90;99.90;;;;;;5068724;28;20287;-84
2021/11/29 03:39:21;;;;;;;7.23;6.40;;;2.90;99.90;;;;;;5072694;28;20173;-83
2021/11/29 03:41:56;;;;;;;7.67;6.27;;;3.10;99.90;;;;;;5067659;28;20180;-86
2021/11/29 03:44:28;;;;;;;7.83;6.30;;;3.10;99.90;;;;;;5067844;28;20598;-88
2021/11/29 03:46:56;;;;;;;6.87;5.80;;;3.10;99.90;;;;;;5067145;28;20173;-88
2021/11/29 03:49:23;;;;;;;7.70;5.93;;;3.10;99.90;;;;;;5062929;28;20164;-88
2021/11/29 03:51:48;;;;;;;7.13;5.57;;;3.00;99.90;;;;;;5061927;28;20569;-86
2021/11/29 03:54:15;;;;;;;7.23;5.60;;;2.90;99.90;;;;;;5063851;28;20169;-87
2021/11/29 03:56:41;;;;;;;6.27;5.40;;;2.90;99.90;;;;;;5065357;28;20224;-86
2021/11/29 03:59:07;;;;;;;6.33;5.17;;;3.00;99.90;;;;;;5064005;28;20267;-88
2021/11/29 04:01:36;;;;;;;6.20;4.87;;;2.90;99.90;;;;;;5068559;28;20206;-86
2021/11/29 04:04:03;;;;;;;7.70;5.33;;;2.90;99.90;;;;;;5069412;28;20217;-87
2021/11/29 04:06:30;;;;;;;6.60;4.70;;;2.90;99.90;;;;;;5064231;28;20165;-87
2021/11/29 04:08:56;;;;;;;6.50;4.83;;;2.90;99.90;;;;;;5059313;28;20227;-83
2021/11/29 04:11:23;;;;;;;5.67;4.53;;;2.90;99.90;;;;;;5059264;28;20173;-89
2021/11/29 04:13:49;;;;;;;5.57;4.37;;;2.90;99.90;;;;;;5058952;28;20172;-86
2021/11/29 04:16:17;;;;;;;5.73;4.70;;;2.90;99.90;;;;;;5058684;28;20181;-86
2021/11/29 04:18:44;;;;;;;6.17;4.20;;;2.80;99.90;;;;;;5060966;28;20204;-87
2021/11/29 04:21:12;;;;;;;5.67;4.23;;;2.90;99.90;;;;;;5059252;28;20237;-85
2021/11/29 04:23:38;;;;;;;5.97;3.87;;;3.10;99.90;;;;;;5062681;28;20172;-88
2021/11/29 04:26:05;;;;;;;6.17;4.17;;;3.30;99.90;;;;;;5059755;28;20157;-85
2021/11/29 04:28:31;;;;;;;5.97;3.73;;;3.40;99.90;;;;;;5060309;28;20169;-87
2021/11/29 04:30:57;;;;;;;6.23;4.00;;;3.40;99.90;;;;;;5071386;28;20217;-87
2021/11/29 04:33:23;;;;;;;6.97;4.03;;;3.50;99.90;;;;;;5073456;28;20176;-79
2021/11/29 04:35:49;;;;;;;5.17;3.20;;;3.30;99.90;;;;;;5074588;28;20224;-82
2021/11/29 04:38:15;;;;;;;4.90;3.57;;;3.10;99.90;;;;;;5073801;28;20216;-82
2021/11/29 04:40:41;;;;;;;6.03;4.20;;;2.90;99.90;;;;;;5074092;28;20157;-78
2021/11/29 04:43:07;;;;;;;4.50;3.77;;;2.90;99.90;;;;;;5074021;28;20199;-78
2021/11/29 04:45:33;;;;;;;5.30;4.17;;;3.00;99.90;;;;;;5072854;28;20175;-80
2021/11/29 04:47:59;;;;;;;7.43;4.57;;;2.90;99.90;;;;;;5074896;28;20232;-81
2021/11/29 04:50:24;;;;;;;6.63;4.60;;;2.90;99.90;;;;;;5071023;28;20173;-83
2021/11/29 04:52:50;;;;;;;5.87;4.27;;;3.00;99.90;;;;;;5073655;28;20199;-78
2021/11/29 04:55:17;;;;;;;4.70;4.20;;;3.20;99.90;;;;;;5074965;28;20175;-78
2021/11/29 04:57:43;;;;;;;5.17;4.30;;;3.30;99.90;;;;;;5075757;28;20204;-78
2021/11/29 05:00:11;;;;;;;5.83;4.40;;;3.30;99.90;;;;;;5075109;28;20168;-82
2021/11/29 05:02:37;;;;;;;5.17;4.43;;;3.30;99.90;;;;;;5075397;28;20195;-81
2021/11/29 05:05:04;;;;;;;5.60;4.23;;;3.50;99.90;;;;;;5068372;28;20173;-86
2021/11/29 05:07:30;;;;;;;4.80;4.20;;;3.70;99.90;;;;;;5065685;28;20165;-87
2021/11/29 05:10:06;;;;;;;6.13;4.73;;;3.80;99.90;;;;;;5073675;28;20184;-85
2021/11/29 05:12:38;;;;;;;5.77;3.93;;;3.80;99.90;;;;;;5065103;28;20157;-82
2021/11/29 05:15:07;;;;;;;4.97;4.43;;;3.70;99.90;;;;;;5074037;28;20200;-84
2021/11/29 05:17:53;;;;;;;5.57;4.60;;;3.70;99.90;;;;;;5078933;28;20204;-78
2021/11/29 05:20:28;;;;;;;5.37;4.47;;;3.70;99.90;;;;;;5077958;28;20208;-81
2021/11/29 05:22:55;;;;;;;4.93;4.37;;;3.60;99.90;;;;;;5067125;28;20156;-85
2021/11/29 05:25:27;;;;;;;5.27;4.50;;;3.50;99.90;;;;;;5057963;28;20257;-81
2021/11/29 05:27:58;;;;;;;6.40;4.20;;;3.60;99.90;;;;;;5058192;28;20176;-79
2021/11/29 05:30:28;;;;;;;8.03;4.50;;;3.60;99.90;;;;;;5054471;28;20169;-78
2021/11/29 05:32:56;;;;;;;10.83;5.50;;;3.40;99.90;;;;;;5055171;28;20609;-83
2021/11/29 05:35:24;;;;;;;5.53;4.53;;;3.20;99.90;;;;;;5053497;28;20180;-81
2021/11/29 05:37:49;;;;;;;6.13;4.83;;;3.20;99.90;;;;;;5056027;28;20220;-78
2021/11/29 05:40:16;;;;;;;6.47;5.20;;;3.40;99.90;;;;;;5078278;28;20176;-83
2021/11/29 05:42:42;;;;;;;6.93;5.47;;;3.40;99.90;;;;;;5076677;28;20185;-81
2021/11/29 05:45:09;;;;;;;6.23;5.37;;;3.30;99.90;;;;;;5075507;28;20176;-79
2021/11/29 05:47:36;;;;;;;6.30;5.70;;;3.40;99.90;;;;;;5064365;28;20196;-86
2021/11/29 05:50:14;;;;;;;7.47;6.67;;;3.40;99.90;;;;;;5056160;28;20183;-83
2021/11/29 05:52:46;;;;;;;6.90;6.20;;;3.30;99.90;;;;;;5055479;28;20201;-86
2021/11/29 05:55:14;;;;;;;7.53;6.57;;;3.20;99.90;;;;;;5055713;28;20177;-80
2021/11/29 05:57:40;;;;;;;7.23;6.47;;;3.10;99.90;;;;;;5055768;28;20200;-78
2021/11/29 06:00:11;;;;;;;7.57;6.43;;;3.00;99.90;;;;;;5055391;28;20169;-88
2021/11/29 06:02:38;;;;;;;6.87;6.17;;;3.00;99.90;;;;;;5055899;28;20629;-79
2021/11/29 06:05:05;;;;;;;6.60;6.00;;;2.90;99.90;;;;;;5055235;28;20628;-80
2021/11/29 06:07:31;;;;;;;6.57;5.97;;;3.20;99.90;;;;;;5055557;28;20173;-86
2021/11/29 06:09:57;;;;;;;7.97;6.10;;;3.00;99.90;;;;;;5055348;28;20260;-87
2021/11/29 06:12:23;;;;;;;7.87;6.83;;;3.00;99.90;;;;;;5054890;28;20180;-88
2021/11/29 06:14:48;;;;;;;7.40;6.10;;;3.10;99.90;;;;;;5056000;28;20164;-88
2021/11/29 06:17:14;;;;;;;7.17;5.80;;;3.20;99.90;;;;;;5055220;28;20236;-89
2021/11/29 06:19:39;;;;;;;6.73;5.33;;;3.10;99.90;;;;;;5054457;28;20529;-86
2021/11/29 06:22:05;;;;;;;7.33;5.73;;;3.10;99.90;;;;;;5055196;28;20244;-78
2021/11/29 06:24:32;;;;;;;9.27;5.57;;;3.10;99.90;;;;;;5055698;28;20591;-84
2021/11/29 06:26:58;;;;;;;6.17;4.80;;;3.10;99.90;;;;;;5057176;28;20173;-87
2021/11/29 06:29:23;;;;;;;6.90;4.93;;;3.10;99.90;;;;;;5054948;28;20161;-82
2021/11/29 06:31:50;;;;;;;6.77;5.17;;;3.10;99.90;;;;;;5056728;28;20165;-80
2021/11/29 06:34:17;;;;;;;8.67;5.33;;;3.10;99.90;;;;;;5054954;28;20288;-87
2021/11/29 06:36:43;;;;;;;6.70;5.10;;;3.00;99.90;;;;;;5055291;28;20544;-88
2021/11/29 06:39:09;;;;;;;5.93;5.40;;;2.90;99.90;;;;;;5058028;28;20185;-78
2021/11/29 06:41:35;;;;;;;6.47;5.47;;;3.00;99.90;;;;;;5057593;28;20172;-78
2021/11/29 06:44:00;;;;;;;5.57;5.00;;;3.00;99.90;;;;;;5056366;28;20188;-81
2021/11/29 06:46:27;;;;;;;6.30;5.40;;;3.00;99.90;;;;;;5059377;28;20200;-88
2021/11/29 06:48:53;;;;;;;6.83;5.33;;;3.00;99.90;;;;;;5059797;28;20168;-85
2021/11/29 06:51:23;;;;;;;6.97;5.57;;;2.90;99.90;;;;;;5059030;28;20629;-85
2021/11/29 06:53:50;;;;;;;6.37;5.10;;;3.00;99.90;;;;;;5059016;28;20223;-88
2021/11/29 06:56:16;;;;;;;6.17;4.80;;;2.90;99.90;;;;;;5061939;28;20226;-86
2021/11/29 06:58:43;;;;;;;5.10;4.53;;;2.90;99.90;;;;;;5062932;28;20189;-81
2021/11/29 07:01:09;;;;;;;7.87;5.20;;;2.80;99.90;;;;;;5059504;28;20204;-84
2021/11/29 07:03:35;;;;;;;17.30;6.27;;;2.80;99.90;;;;;;5063305;28;20177;-88
2021/11/29 07:06:01;;;;;;;10.60;5.27;;;3.00;99.90;;;;;;5062857;28;20176;-85
2021/11/29 07:08:28;;;;;;;5.50;4.90;;;3.10;99.90;;;;;;5061225;28;20177;-86
2021/11/29 07:10:54;;;;;;;6.57;5.90;;;3.20;99.90;;;;;;5060717;28;20215;-86
2021/11/29 07:13:19;;;;;;;8.10;5.23;;;3.40;99.90;;;;;;5061117;28;20165;-86
2021/11/29 07:15:46;;;;;;;6.37;5.60;;;3.20;99.90;;;;;;5060163;28;20183;-84
2021/11/29 07:18:13;;;;;;;6.67;5.47;;;3.20;99.90;;;;;;5059720;28;20266;-79
2021/11/29 07:20:40;;;;;;;8.13;4.90;;;3.20;99.90;;;;;;5042467;28;20578;-87
2021/11/29 07:23:06;;;;;;;5.00;4.50;;;2.90;99.90;;;;;;5057746;28;20157;-83
2021/11/29 07:25:32;;;;;;;5.73;4.30;;;2.90;99.90;;;;;;5060256;28;20164;-79
2021/11/29 07:27:58;;;;;;;5.87;4.70;;;2.90;99.90;;;;;;5057056;28;20169;-86
2021/11/29 07:30:26;;;;;;;8.43;5.10;;;2.90;99.90;;;;;;5052521;28;20172;-83
2021/11/29 07:32:54;;;;;;;5.73;4.97;;;3.00;99.90;;;;;;5053753;28;20188;-79
2021/11/29 07:35:22;;;;;;;7.70;5.53;;;2.90;99.90;;;;;;5060831;28;20165;-79
2021/11/29 07:37:48;;;;;;;8.23;6.20;;;3.10;99.90;;;;;;5055007;28;20220;-84
2021/11/29 07:40:14;;;;;;;7.20;5.40;;;3.30;99.90;;;;;;5059987;28;20315;-79
2021/11/29 07:42:41;;;;;;;5.17;4.67;;;3.10;99.90;;;;;;5055451;28;20645;-80
2021/11/29 07:45:12;;;;;;;5.83;4.73;;;3.00;99.90;;;;;;5070404;28;20165;-79
2021/11/29 07:47:43;;;;;;;6.07;4.77;;;2.90;99.90;;;;;;5054154;28;20546;-80
2021/11/29 07:50:11;;;;;;;8.40;4.70;;;3.00;99.90;;;;;;5056382;28;20161;-79
2021/11/29 07:52:36;;;;;;;5.67;4.20;;;2.80;99.90;;;;;;5057333;28;20223;-80
2021/11/29 07:55:11;;;;;;;6.47;4.50;;;2.80;99.90;;;;;;5063967;28;20173;-79
2021/11/29 07:57:38;;;;;;;4.77;4.10;;;2.80;99.90;;;;;;5055775;28;20196;-80
2021/11/29 08:00:12;;;;;;;6.83;5.13;;;2.80;99.90;;;;;;5056489;28;20181;-79
2021/11/29 08:02:38;;;;;;;8.57;5.50;;;2.90;99.90;;;;;;5056570;28;20184;-79
2021/11/29 08:05:04;;;;;;;6.33;4.40;;;3.00;99.90;;;;;;5071364;28;20191;-81
2021/11/29 08:07:30;;;;;;;9.70;3.87;;;3.10;99.90;;;;;;5075888;28;20181;-80
2021/11/29 08:09:56;;;;;;;8.07;5.07;;;3.10;99.90;;;;;;5091303;28;20167;-80
2021/11/29 08:12:21;;;;;;;5.13;4.43;;;3.20;99.90;;;;;;5083800;28;20185;-83
2021/11/29 08:14:47;;;;;;;8.40;5.43;;;3.20;99.90;;;;;;5072656;28;20240;-81
2021/11/29 08:17:13;;;;;;;6.70;5.07;;;3.40;99.90;;;;;;5058919;28;20711;-83
2021/11/29 08:19:39;;;;;;;6.60;5.20;;;3.40;99.90;;;;;;5057383;28;20173;-81
2021/11/29 08:22:06;;;;;;;7.30;5.17;;;3.30;99.90;;;;;;5056318;28;20169;-79
2021/11/29 08:24:31;;;;;;;7.27;5.30;;;3.50;99.90;;;;;;5076405;28;20221;-85
2021/11/29 08:26:57;;;;;;;7.17;5.70;;;3.40;99.90;;;;;;5067032;28;20233;-89
2021/11/29 08:29:23;;;;;;;9.90;6.17;;;3.40;99.90;;;;;;5084897;28;20176;-86
2021/11/29 08:31:48;;;;;;;9.20;5.80;;;3.30;99.90;;;;;;5094991;28;20188;-84
2021/11/29 08:34:18;;;;;;;7.60;5.57;;;3.30;99.90;;;;;;5085857;28;20309;-87
2021/11/29 08:36:49;;;;;;;7.90;5.60;;;3.50;99.90;;;;;;5082303;28;20200;-83
2021/11/29 08:39:18;;;;;;;8.23;5.13;;;3.30;99.90;;;;;;5067001;28;20271;-85
2021/11/29 08:41:44;;;;;;;9.20;5.83;;;3.30;99.90;;;;;;5058939;28;20181;-86
2021/11/29 08:44:12;;;;;;;8.93;5.37;;;3.40;99.90;;;;;;5052882;28;20215;-84
2021/11/29 08:46:38;;;;;;;9.77;5.87;;;3.30;99.90;;;;;;5059851;28;20180;-85
2021/11/29 08:49:04;;;;;;;7.37;6.03;;;3.30;99.90;;;;;;5049929;28;20204;-86
2021/11/29 08:51:30;;;;;;;8.13;5.83;;;3.30;99.90;;;;;;5052716;28;20267;-85
2021/11/29 08:53:57;;;;;;;7.57;5.90;;;3.40;99.90;;;;;;5075174;28;20157;-83
2021/11/29 08:56:23;;;;;;;6.40;5.73;;;3.30;99.90;;;;;;5068943;28;20173;-83
2021/11/29 08:58:49;;;;;;;7.20;5.37;;;3.20;99.90;;;;;;5077672;28;20200;-84
2021/11/29 09:01:16;;;;;;;11.37;6.20;;;3.50;99.90;;;;;;5076400;28;20159;-89
2021/11/29 09:03:44;;;;;;;10.57;6.67;;;3.50;99.90;;;;;;5047953;28;20178;-87
2021/11/29 09:06:13;;;;;;;7.17;5.60;;;3.40;99.90;;;;;;5045348;28;20664;-86
2021/11/29 09:08:39;;;;;;;6.57;5.70;;;3.40;99.90;;;;;;5063171;28;20173;-84
2021/11/29 09:11:05;;;;;;;7.60;5.37;;;3.50;99.90;;;;;;5062821;28;20266;-86
2021/11/29 09:13:31;;;;;;;7.17;5.40;;;3.60;99.90;;;;;;5077349;28;20200;-86
2021/11/29 09:16:05;;;;;;;6.70;5.43;;;3.70;99.90;;;;;;5065969;28;20308;-88
2021/11/29 09:18:31;;;;;;;7.33;5.57;;;3.70;99.90;;;;;;5067705;28;20197;-89
2021/11/29 09:20:58;;;;;;;8.57;5.47;;;3.80;99.90;;;;;;5073369;28;20172;-89
2021/11/29 09:23:26;;;;;;;6.53;4.97;;;4.10;99.90;;;;;;5077034;28;20169;-80
2021/11/29 09:25:58;;;;;;;6.87;4.87;;;4.10;99.90;;;;;;5077344;28;20196;-83
2021/11/29 09:28:53;;;;;;;7.63;5.47;;;4.10;99.90;;;;;;5076333;28;20189;-88
2021/11/29 09:31:46;;;;;;;5.27;4.60;;;4.00;99.90;;;;;;5074093;28;20169;-80
2021/11/29 09:40:52;;;;;;;7.77;5.17;;;4.00;99.90;;;;;;5060327;28;20532;-86
2021/11/29 09:43:35;;;;;;;6.87;5.03;;;4.00;99.90;;;;;;5061296;28;20161;-82
2021/11/29 09:46:05;;;;;;;7.20;5.10;;;4.10;99.90;;;;;;5040800;28;20169;-89
2021/11/29 09:48:32;;;;;;;10.20;5.17;;;4.10;99.90;;;;;;5057466;28;20191;-82
2021/11/29 09:50:59;;;;;;;7.57;4.70;;;4.10;99.90;;;;;;5059211;28;20176;-83
2021/11/29 09:53:29;;;;;;;7.97;4.97;;;4.10;99.90;;;;;;5073635;28;20161;-81
2021/11/29 09:55:55;;;;;;;8.07;4.30;;;4.40;99.90;;;;;;5074301;28;20214;-83
2021/11/29 09:58:22;;;;;;;6.33;4.43;;;4.30;99.90;;;;;;5073233;28;20213;-82
2021/11/29 10:00:51;;;;;;;8.07;5.90;;;4.40;99.90;;;;;;5070350;28;20177;-79
2021/11/29 10:03:18;;;;;;;11.47;4.60;;;4.50;99.90;;;;;;5067898;28;20618;-82
2021/11/29 10:05:48;;;;;;;9.23;4.40;;;4.60;99.90;;;;;;5063448;28;20188;-79
2021/11/29 10:08:24;;;;;;;7.57;3.67;;;4.60;99.70;;;;;;5066575;28;20161;-82
2021/11/29 10:10:53;;;;;;;6.27;4.00;;;4.60;99.90;;;;;;5066903;28;20582;-79
2021/11/29 10:13:20;;;;;;;8.00;3.60;;;4.70;99.90;;;;;;5066000;28;20176;-81
2021/11/29 10:15:46;;;;;;;7.63;3.33;;;4.80;99.90;;;;;;5052371;28;20296;-78
2021/11/29 10:18:26;;;;;;;5.57;3.63;;;4.80;98.90;;;;;;5066638;28;20668;-81
2021/11/29 10:21:09;;;;;;;8.03;4.23;;;4.80;99.40;;;;;;5064815;28;20307;-82
2021/11/29 10:23:47;;;;;;;7.40;3.90;;;4.90;99.30;;;;;;5057257;28;20181;-87
2021/11/29 10:26:35;;;;;;;5.87;4.40;;;4.90;99.30;;;;;;5056255;28;20192;-87
2021/11/29 10:29:03;;;;;;;7.27;4.43;;;4.90;98.70;;;;;;5062842;28;20231;-87
2021/11/29 10:31:35;;;;;;;6.30;3.30;;;4.90;99.00;;;;;;5060433;28;20245;-87
2021/11/29 10:34:09;;;;;;;6.83;3.57;;;4.90;99.20;;;;;;5074715;28;20176;-82
2021/11/29 10:36:39;;;;;;;5.67;3.73;;;5.00;99.00;;;;;;5071440;28;20196;-88
2021/11/29 10:39:10;;;;;;;6.17;4.17;;;5.00;99.10;;;;;;5065731;28;20177;-84
2021/11/29 10:41:50;;;;;;;5.13;3.70;;;5.10;99.50;;;;;;5059730;28;20173;-87
2021/11/29 10:44:22;;;;;;;6.53;3.77;;;5.30;98.80;;;;;;5061410;28;20179;-86
2021/11/29 10:46:52;;;;;;;5.53;2.97;;;5.50;98.20;;;;;;5059604;28;20284;-89
2021/11/29 10:49:24;;;;;;;5.97;3.30;;;5.50;96.90;;;;;;5056748;28;20173;-85
2021/11/29 10:51:52;;;;;;;7.20;3.30;;;5.40;96.10;;;;;;5066918;28;20180;-83
2021/11/29 10:54:23;;;;;;;5.73;2.93;;;5.50;96.10;;;;;;5058627;28;20264;-88
2021/11/29 10:56:50;;;;;;;11.47;3.20;;;5.50;95.70;;;;;;5055542;28;20200;-87
2021/11/29 10:59:19;;;;;;;7.50;3.27;;;5.60;95.40;;;;;;5057347;28;20196;-89
2021/11/29 11:01:48;;;;;;;5.47;3.03;;;5.60;94.10;;;;;;5059829;28;20260;-88
2021/11/29 11:04:32;;;;;;;6.30;3.10;;;5.60;94.30;;;;;;5062614;28;20298;-88
2021/11/29 11:07:08;;;;;;;6.20;2.90;;;5.70;94.10;;;;;;5065957;28;20243;-87
2021/11/29 11:09:39;;;;;;;9.77;3.60;;;5.90;93.30;;;;;;5061182;28;20153;-87
2021/11/29 11:12:14;;;;;;;11.00;3.57;;;6.00;92.70;;;;;;5060549;28;20180;-90
2021/11/29 11:14:53;;;;;;;7.23;2.90;;;6.00;91.80;;;;;;5060735;28;20180;-88
2021/11/29 11:17:23;;;;;;;7.70;2.90;;;6.10;90.00;;;;;;5057262;28;20599;-87
2021/11/29 11:19:52;;;;;;;8.47;3.40;;;6.20;90.50;;;;;;5056507;28;20177;-88
2021/11/29 11:22:29;;;;;;;7.23;2.80;;;6.40;90.10;;;;;;5058464;28;20268;-85
2021/11/29 11:25:00;;;;;;;7.50;2.87;;;6.50;82.60;;;;;;5067780;28;20248;-89
2021/11/29 11:27:36;;;;;;;10.60;3.20;;;6.50;83.90;;;;;;5061625;28;20189;-88
2021/11/29 11:30:17;;;;;;;7.00;2.57;;;6.70;82.20;;;;;;5081787;28;20183;-85
2021/11/29 11:32:46;;;;;;;9.83;3.10;;;6.80;75.60;;;;;;5059965;28;20230;-85
2021/11/29 11:35:22;;;;;;;6.47;2.57;;;6.90;72.80;;;;;;5059976;28;20272;-87
2021/11/29 11:37:53;;;;;;;8.97;3.10;;;6.90;72.10;;;;;;5060220;28;20224;-84
2021/11/29 11:40:33;;;;;;;9.47;2.90;;;6.80;76.40;;;;;;5060250;28;20541;-86
2021/11/29 11:43:04;;;;;;;9.30;3.00;;;6.70;72.40;;;;;;5066288;28;20199;-86
2021/11/29 11:45:33;;;;;;;11.50;3.73;;;6.70;76.30;;;;;;5060565;28;20163;-86
2021/11/29 11:47:59;;;;;;;18.50;4.67;;;6.80;76.40;;;;;;5061508;28;20177;-86
2021/11/29 11:50:34;;;;;;;18.47;5.73;;;6.80;75.30;;;;;;5062139;28;20184;-87
2021/11/29 11:53:01;;;;;;;10.90;3.93;;;6.80;75.10;;;;;;5064086;28;20172;-85
2021/11/29 11:55:33;;;;;;;10.67;3.93;;;6.70;76.90;;;;;;5058715;28;20560;-86
2021/11/29 11:58:03;;;;;;;10.57;3.07;;;6.80;80.00;;;;;;5061744;28;20204;-87
2021/11/29 12:00:34;;;;;;;12.60;3.73;;;7.00;76.50;;;;;;5055704;28;20177;-86
2021/11/29 12:03:04;;;;;;;12.37;3.20;;;7.00;77.40;;;;;;5054361;28;20184;-87
2021/11/29 12:05:36;;;;;;;10.97;3.00;;;7.00;75.70;;;;;;5062053;28;20200;-86
2021/11/29 12:08:24;;;;;;;7.47;2.53;;;7.20;75.50;;;;;;5058498;28;20173;-86
2021/11/29 12:10:52;;;;;;;9.27;2.67;;;7.30;72.10;;;;;;5063965;28;20200;-88
2021/11/29 12:13:20;;;;;;;9.37;2.43;;;7.40;70.60;;;;;;5059534;28;20578;-90
2021/11/29 12:15:56;;;;;;;5.43;2.17;;;7.60;70.30;;;;;;5061994;28;20169;-86
2021/11/29 12:18:35;;;;;;;9.23;2.87;;;7.40;70.50;;;;;;5062683;28;20212;-85
2021/11/29 12:21:16;;;;;;;7.83;3.53;;;7.60;68.70;;;;;;5065726;28;20169;-87
2021/11/29 12:23:49;;;;;;;11.17;2.40;;;7.70;69.80;;;;;;5065050;28;20169;-84
2021/11/29 12:26:38;;;;;;;9.53;3.27;;;7.70;65.60;;;;;;5066647;28;20219;-87
2021/11/29 12:29:03;;;;;;;8.50;2.80;;;7.80;64.40;;;;;;5066508;28;20173;-84
2021/11/29 12:31:39;;;;;;;5.67;2.00;;;7.80;67.40;;;;;;5065214;28;20238;-86
2021/11/29 12:34:09;;;;;;;5.00;2.10;;;7.80;66.10;;;;;;5053770;28;20200;-86
2021/11/29 12:36:59;;;;;;;5.63;1.67;;;7.70;67.70;;;;;;5059419;28;20242;-86
2021/11/29 12:39:45;;;;;;;7.10;2.17;;;7.60;66.00;;;;;;5056414;28;20173;-85
2021/11/29 12:42:22;;;;;;;5.20;1.83;;;7.60;69.10;;;;;;5057319;28;20171;-86
2021/11/29 12:44:57;;;;;;;7.23;1.77;;;7.70;68.30;;;;;;5043252;28;20174;-84
2021/11/29 12:47:25;;;;;;;5.67;2.03;;;7.80;66.70;;;;;;5066683;28;20172;-83
2021/11/29 12:49:59;;;;;;;5.03;1.73;;;7.80;68.10;;;;;;5073351;28;20172;-84
2021/11/29 12:52:46;;;;;;;6.80;1.97;;;7.60;71.40;;;;;;5075120;28;20183;-85
2021/11/29 12:55:31;;;;;;;5.13;2.50;;;7.70;74.50;;;;;;5070366;28;20636;-83
2021/11/29 12:58:31;;;;;;;5.67;2.50;;;7.60;74.50;;;;;;5050816;28;20234;-85
2021/11/29 13:01:02;;;;;;;7.07;2.20;;;7.60;78.20;;;;;;5051444;28;20644;-88
2021/11/29 13:03:29;;;;;;;4.77;1.70;;;7.70;77.90;;;;;;5056155;28;20183;-86
2021/11/29 13:05:59;;;;;;;10.67;2.73;;;7.90;77.40;;;;;;5058125;28;20161;-84
2021/11/29 13:08:30;;;;;;;8.20;2.47;;;7.90;76.20;;;;;;5040699;28;20637;-85
2021/11/29 13:11:06;;;;;;;3.20;1.80;;;7.80;77.20;;;;;;5050913;28;20191;-89
2021/11/29 13:13:38;;;;;;;9.40;2.20;;;7.80;76.50;;;;;;5076134;28;20188;-82